Time;durP1;ratioP1;P1;durP2;ratioP2;P2;SDS_P1;SDS_P2;PMS_P1;PMS_P2;Temp;Humidity;BMP_temperature;BMP_pressure;BME280_temperature;BME280_humidity;BME280_pressure;Samples;Min_cycle;Max_cycle;Signal;HPM_P1;HPM_P2
2022/03/05 00:00:02;;;;;;;12.55;9.90;;;14.00;33.40;;;;;;5149427;27;47245;-14
2022/03/05 00:02:29;;;;;;;13.15;9.60;;;14.00;33.40;;;;;;5149565;27;47807;-20
2022/03/05 00:04:55;;;;;;;13.30;9.75;;;14.00;33.40;;;;;;5149182;27;46726;-20
2022/03/05 00:07:22;;;;;;;12.48;9.15;;;13.90;33.40;;;;;;5149622;27;46832;-14
2022/03/05 00:09:49;;;;;;;14.20;9.77;;;14.00;33.30;;;;;;5149169;27;46894;-20
2022/03/05 00:12:15;;;;;;;11.98;9.38;;;14.10;33.20;;;;;;5149520;27;47919;-20
2022/03/05 00:14:42;;;;;;;12.82;9.52;;;14.20;33.00;;;;;;5149207;27;46918;-21
2022/03/05 00:17:11;;;;;;;12.10;9.68;;;14.40;32.80;;;;;;5149067;27;46776;-20
2022/03/05 00:19:38;;;;;;;12.38;9.57;;;14.50;32.60;;;;;;5149502;27;47167;-20
2022/03/05 00:22:04;;;;;;;12.35;8.98;;;14.50;32.50;;;;;;5148962;27;46903;-20
2022/03/05 00:24:31;;;;;;;13.05;8.93;;;14.60;32.40;;;;;;5148924;27;47004;-21
2022/03/05 00:26:58;;;;;;;11.82;9.02;;;14.70;32.30;;;;;;5149365;27;46857;-20
2022/03/05 00:29:25;;;;;;;13.45;9.80;;;14.70;32.20;;;;;;5149106;27;47271;-20
2022/03/05 00:31:52;;;;;;;10.45;8.90;;;14.70;32.20;;;;;;5149034;27;48227;-20
2022/03/05 00:34:20;;;;;;;12.43;9.52;;;14.70;32.10;;;;;;5149160;27;46824;-20
2022/03/05 00:36:47;;;;;;;11.50;9.18;;;14.70;32.10;;;;;;5149138;27;46856;-21
2022/03/05 00:39:14;;;;;;;12.52;8.75;;;14.70;32.00;;;;;;5148776;27;46885;-20
2022/03/05 00:41:40;;;;;;;10.63;8.85;;;14.70;32.00;;;;;;5148525;27;47072;-15
2022/03/05 00:44:07;;;;;;;13.10;8.93;;;14.70;32.00;;;;;;5148575;27;46759;-20
2022/03/05 00:46:34;;;;;;;11.35;8.48;;;14.70;32.00;;;;;;5148777;27;46919;-21
2022/03/05 00:49:00;;;;;;;12.55;9.40;;;14.70;32.00;;;;;;5148566;27;46941;-20
2022/03/05 00:51:29;;;;;;;13.27;8.73;;;14.70;32.00;;;;;;5148648;27;48100;-20
2022/03/05 00:53:55;;;;;;;10.68;8.35;;;14.70;32.00;;;;;;5148340;27;46849;-20
2022/03/05 00:56:22;;;;;;;11.38;9.15;;;14.70;32.00;;;;;;5148131;27;46992;-20
2022/03/05 00:58:49;;;;;;;11.23;8.50;;;14.70;32.00;;;;;;5148543;27;46981;-20
2022/03/05 01:01:15;;;;;;;11.48;8.77;;;14.70;32.00;;;;;;5148524;27;48856;-20
2022/03/05 01:03:43;;;;;;;10.63;7.70;;;14.60;32.00;;;;;;5148377;27;46879;-21
2022/03/05 01:06:09;;;;;;;12.02;8.43;;;14.60;32.00;;;;;;5148511;27;46893;-15
2022/03/05 01:08:38;;;;;;;10.48;7.80;;;14.60;32.10;;;;;;5149106;27;46890;-14
2022/03/05 01:11:05;;;;;;;10.77;7.68;;;14.60;32.10;;;;;;5148223;27;48049;-15
2022/03/05 01:13:32;;;;;;;10.70;8.40;;;14.50;32.10;;;;;;5148248;27;47027;-14
2022/03/05 01:15:58;;;;;;;9.85;8.00;;;14.50;32.10;;;;;;5148073;27;46854;-16
2022/03/05 01:18:25;;;;;;;10.88;7.70;;;14.50;32.20;;;;;;5148547;27;46816;-20
2022/03/05 01:20:52;;;;;;;12.40;7.97;;;14.50;32.20;;;;;;5147723;27;49050;-14
2022/03/05 01:23:18;;;;;;;10.88;7.97;;;14.50;32.20;;;;;;5148436;27;46932;-14
2022/03/05 01:25:46;;;;;;;9.90;7.65;;;14.40;32.20;;;;;;5148244;27;46853;-14
2022/03/05 01:28:13;;;;;;;9.57;7.65;;;14.40;32.20;;;;;;5148314;27;46899;-21
2022/03/05 01:30:40;;;;;;;10.48;7.47;;;14.40;32.30;;;;;;5148077;27;48075;-14
2022/03/05 01:33:06;;;;;;;9.73;7.30;;;14.40;32.30;;;;;;5147838;27;46974;-20
2022/03/05 01:35:33;;;;;;;9.88;7.70;;;14.30;32.30;;;;;;5148165;27;46844;-20
2022/03/05 01:38:00;;;;;;;10.02;7.63;;;14.30;32.30;;;;;;5148769;27;47090;-20
2022/03/05 01:40:27;;;;;;;9.95;7.43;;;14.30;32.40;;;;;;5148128;27;49057;-20
2022/03/05 01:42:55;;;;;;;10.02;7.10;;;14.30;32.40;;;;;;5148277;27;46939;-21
2022/03/05 01:45:22;;;;;;;7.63;6.85;;;14.20;32.40;;;;;;5147681;27;46838;-20
2022/03/05 01:47:48;;;;;;;9.90;6.88;;;14.20;32.40;;;;;;5147876;27;46857;-20
2022/03/05 01:50:15;;;;;;;7.93;6.07;;;14.20;32.50;;;;;;5147622;27;47077;-15
2022/03/05 01:52:42;;;;;;;8.63;7.00;;;14.20;32.50;;;;;;5147623;27;47466;-15
2022/03/05 01:55:09;;;;;;;10.15;7.25;;;14.10;32.40;;;;;;5147512;27;47089;-21
2022/03/05 01:57:35;;;;;;;9.95;7.15;;;14.10;32.50;;;;;;5148300;27;46954;-20
2022/03/05 02:00:04;;;;;;;8.65;7.20;;;14.10;33.10;;;;;;5147199;27;47524;-14
2022/03/05 02:02:31;;;;;;;11.07;7.67;;;14.10;32.50;;;;;;5147715;27;47137;-15
2022/03/05 02:04:58;;;;;;;8.00;6.77;;;14.00;32.50;;;;;;5147537;27;46894;-20
2022/03/05 02:07:25;;;;;;;10.95;8.10;;;14.00;32.60;;;;;;5147460;27;46845;-20
2022/03/05 02:09:52;;;;;;;8.95;6.75;;;14.00;32.70;;;;;;5146584;27;47087;-15
2022/03/05 02:12:19;;;;;;;10.75;7.47;;;14.00;32.60;;;;;;5147599;27;47151;-14
2022/03/05 02:14:45;;;;;;;9.90;7.00;;;14.00;32.70;;;;;;5147149;27;46860;-21
2022/03/05 02:17:13;;;;;;;9.35;6.75;;;14.00;32.70;;;;;;5147536;27;47230;-20
2022/03/05 02:19:40;;;;;;;11.88;7.85;;;14.00;32.70;;;;;;5146827;27;48645;-15
2022/03/05 02:22:10;;;;;;;8.50;7.30;;;13.90;33.20;;;;;;5147163;27;46997;-14
2022/03/05 02:24:37;;;;;;;10.50;6.80;;;13.90;32.70;;;;;;5147330;27;47000;-21
2022/03/05 02:27:05;;;;;;;9.50;7.17;;;13.90;32.80;;;;;;5147300;27;47260;-16
2022/03/05 02:29:31;;;;;;;8.80;6.80;;;13.90;32.80;;;;;;5146997;27;48210;-14
2022/03/05 02:31:58;;;;;;;8.80;7.23;;;13.80;32.70;;;;;;5147490;27;47439;-16
2022/03/05 02:34:25;;;;;;;8.23;6.13;;;13.80;32.80;;;;;;5147268;27;46921;-14
2022/03/05 02:36:52;;;;;;;9.47;6.77;;;13.80;32.70;;;;;;5147505;27;46924;-14
2022/03/05 02:39:23;;;;;;;8.77;6.35;;;13.80;32.80;;;;;;5146789;27;46865;-15
2022/03/05 02:41:50;;;;;;;8.77;6.95;;;13.80;32.70;;;;;;5147003;27;46924;-14
2022/03/05 02:44:17;;;;;;;9.17;7.23;;;13.80;32.90;;;;;;5147169;27;47119;-14
2022/03/05 02:46:44;;;;;;;8.73;7.07;;;13.70;32.80;;;;;;5147133;27;46918;-14
2022/03/05 02:49:10;;;;;;;9.70;7.60;;;13.70;32.90;;;;;;5146780;27;49051;-15
2022/03/05 02:51:38;;;;;;;9.18;6.93;;;13.70;32.90;;;;;;5146755;27;46796;-15
2022/03/05 02:54:05;;;;;;;7.90;6.18;;;13.70;32.90;;;;;;5146865;27;46816;-14
2022/03/05 02:56:33;;;;;;;9.10;7.10;;;13.70;32.90;;;;;;5147503;27;46961;-15
2022/03/05 02:59:00;;;;;;;9.37;7.20;;;13.60;32.90;;;;;;5146559;27;47926;-14
2022/03/05 03:01:27;;;;;;;9.03;6.10;;;13.60;32.90;;;;;;5146912;27;47046;-20
2022/03/05 03:03:53;;;;;;;10.67;6.73;;;13.60;33.00;;;;;;5146829;27;46960;-20
2022/03/05 03:06:20;;;;;;;9.20;7.20;;;13.70;32.90;;;;;;5146769;27;46932;-20
2022/03/05 03:08:47;;;;;;;7.30;6.40;;;13.80;32.70;;;;;;5146577;27;46855;-20
2022/03/05 03:11:14;;;;;;;8.33;6.70;;;13.90;32.60;;;;;;5146748;27;46931;-14
2022/03/05 03:13:42;;;;;;;8.43;6.43;;;14.00;32.40;;;;;;5146834;27;46785;-14
2022/03/05 03:16:09;;;;;;;8.65;6.82;;;14.20;32.30;;;;;;5147030;27;46801;-15
2022/03/05 03:18:35;;;;;;;7.73;6.23;;;14.20;32.00;;;;;;5146731;27;48734;-15
2022/03/05 03:21:02;;;;;;;10.07;6.87;;;14.30;31.90;;;;;;5148429;27;46914;-15
2022/03/05 03:23:29;;;;;;;8.23;6.47;;;14.40;31.80;;;;;;5150311;27;46835;-15
2022/03/05 03:25:55;;;;;;;9.07;5.90;;;14.40;31.60;;;;;;5149988;27;47291;-15
2022/03/05 03:28:22;;;;;;;8.73;7.00;;;14.50;31.60;;;;;;5150206;27;47069;-20
2022/03/05 03:30:50;;;;;;;8.17;6.40;;;14.50;31.50;;;;;;5149686;27;46836;-20
2022/03/05 03:33:17;;;;;;;8.10;6.67;;;14.50;31.50;;;;;;5150227;27;46886;-20
2022/03/05 03:35:44;;;;;;;8.05;7.00;;;14.40;31.50;;;;;;5150084;27;47134;-14
2022/03/05 03:38:10;;;;;;;10.40;6.93;;;14.50;31.50;;;;;;5149673;27;49041;-15
2022/03/05 03:40:37;;;;;;;9.53;6.80;;;14.40;31.50;;;;;;5149555;27;46897;-20
2022/03/05 03:43:04;;;;;;;8.48;6.60;;;14.40;31.50;;;;;;5149960;27;46745;-20
2022/03/05 03:45:30;;;;;;;8.73;7.10;;;14.40;31.50;;;;;;5149648;27;47329;-20
2022/03/05 03:47:59;;;;;;;8.57;6.38;;;14.40;31.50;;;;;;5149853;27;47097;-21
2022/03/05 03:50:25;;;;;;;9.60;6.85;;;14.40;31.60;;;;;;5149403;27;46974;-15
2022/03/05 03:52:52;;;;;;;7.75;6.30;;;14.30;31.40;;;;;;5149568;27;46812;-15
2022/03/05 03:55:19;;;;;;;7.55;6.22;;;14.30;31.50;;;;;;5150038;27;46998;-15
2022/03/05 03:57:46;;;;;;;8.27;6.78;;;14.30;31.50;;;;;;5149296;27;48234;-15
2022/03/05 04:00:14;;;;;;;9.07;6.53;;;14.30;31.60;;;;;;5149414;27;47188;-14
2022/03/05 04:02:41;;;;;;;7.55;6.43;;;14.20;31.50;;;;;;5149671;27;47012;-14
2022/03/05 04:05:10;;;;;;;8.07;6.28;;;14.20;31.60;;;;;;5149319;27;46905;-14
2022/03/05 04:10:21;;;;;;;7.65;6.18;;;14.20;31.70;;;;;;5148033;27;46994;-20
2022/03/05 04:12:49;;;;;;;7.97;6.32;;;14.20;31.80;;;;;;5149252;27;46890;-21
2022/03/05 04:15:17;;;;;;;8.20;6.55;;;14.10;31.70;;;;;;5149227;27;46910;-20
2022/03/05 04:17:44;;;;;;;7.90;6.30;;;14.10;31.80;;;;;;5149142;27;48712;-14
2022/03/05 04:20:12;;;;;;;8.87;6.30;;;14.10;31.80;;;;;;5148899;27;47113;-15
2022/03/05 04:22:39;;;;;;;6.90;5.97;;;14.00;31.80;;;;;;5149212;27;46883;-20
2022/03/05 04:25:06;;;;;;;8.95;6.35;;;14.00;31.90;;;;;;5148948;27;47208;-20
2022/03/05 04:27:33;;;;;;;9.13;6.13;;;14.00;31.90;;;;;;5149111;27;49058;-20
2022/03/05 04:29:59;;;;;;;8.63;6.35;;;14.00;31.90;;;;;;5148953;27;46844;-20
2022/03/05 04:32:26;;;;;;;7.80;6.43;;;13.90;31.90;;;;;;5148883;27;46830;-20
2022/03/05 04:34:53;;;;;;;9.73;6.13;;;13.90;32.00;;;;;;5148997;27;47280;-14
2022/03/05 04:37:21;;;;;;;9.80;6.55;;;13.90;32.00;;;;;;5148656;27;47882;-15
2022/03/05 04:39:48;;;;;;;9.30;6.30;;;13.80;32.00;;;;;;5148900;27;47037;-14
2022/03/05 04:42:14;;;;;;;10.50;6.97;;;13.80;32.10;;;;;;5149067;27;46837;-21
2022/03/05 04:44:41;;;;;;;9.47;6.13;;;13.80;32.10;;;;;;5148929;27;46984;-20
2022/03/05 04:47:08;;;;;;;9.00;6.50;;;13.80;32.20;;;;;;5148769;27;48240;-15
2022/03/05 04:49:34;;;;;;;10.17;7.30;;;13.70;32.20;;;;;;5148905;27;46988;-20
2022/03/05 04:52:01;;;;;;;9.47;6.77;;;13.70;32.20;;;;;;5148494;27;46861;-21
2022/03/05 04:54:30;;;;;;;8.27;6.40;;;13.70;32.30;;;;;;5148726;27;47300;-20
2022/03/05 04:56:56;;;;;;;8.73;6.57;;;13.60;32.30;;;;;;5148777;27;49064;-20
2022/03/05 04:59:23;;;;;;;8.17;6.27;;;13.60;32.30;;;;;;5148605;27;46901;-20
2022/03/05 05:01:50;;;;;;;8.65;6.80;;;13.60;32.40;;;;;;5148716;27;46874;-20
2022/03/05 05:04:16;;;;;;;8.50;6.43;;;13.60;32.40;;;;;;5148442;27;46935;-21
2022/03/05 05:06:44;;;;;;;9.27;6.30;;;13.50;32.50;;;;;;5148437;27;47913;-14
2022/03/05 05:09:10;;;;;;;8.50;6.13;;;13.50;32.50;;;;;;5148099;27;47029;-14
2022/03/05 05:11:39;;;;;;;10.33;6.43;;;13.50;32.50;;;;;;5148664;27;47001;-19
2022/03/05 05:14:06;;;;;;;7.57;6.33;;;13.50;32.60;;;;;;5148287;27;46993;-15
2022/03/05 05:16:32;;;;;;;8.43;6.60;;;13.50;32.60;;;;;;5148257;27;48086;-16
2022/03/05 05:21:43;;;;;;;8.33;6.53;;;13.40;32.60;;;;;;5145520;27;46997;-14
2022/03/05 05:24:10;;;;;;;7.90;6.47;;;13.50;32.60;;;;;;5148899;27;46858;-13
2022/03/05 05:26:36;;;;;;;8.80;6.73;;;13.60;32.40;;;;;;5147965;27;49219;-15
2022/03/05 05:29:04;;;;;;;8.97;6.50;;;13.70;32.30;;;;;;5148113;27;47256;-21
2022/03/05 05:31:31;;;;;;;9.23;6.47;;;13.80;32.30;;;;;;5148286;27;46880;-14
2022/03/05 05:33:58;;;;;;;8.07;6.47;;;13.90;32.00;;;;;;5148491;27;46906;-21
2022/03/05 05:36:24;;;;;;;9.43;7.20;;;14.00;31.90;;;;;;5148146;27;48994;-14
2022/03/05 05:38:51;;;;;;;8.03;6.37;;;14.10;31.70;;;;;;5147791;27;47493;-14
2022/03/05 05:41:18;;;;;;;8.67;6.40;;;14.10;31.60;;;;;;5148282;27;46823;-19
2022/03/05 05:43:45;;;;;;;10.17;6.43;;;14.20;31.60;;;;;;5147557;27;46917;-20
2022/03/05 05:46:13;;;;;;;8.27;6.37;;;14.20;31.60;;;;;;5147906;27;48134;-14
2022/03/05 05:48:40;;;;;;;7.17;6.37;;;14.20;31.50;;;;;;5147971;27;46894;-15
2022/03/05 05:51:06;;;;;;;8.17;6.40;;;14.20;31.50;;;;;;5147691;27;46883;-20
2022/03/05 05:53:33;;;;;;;9.40;6.83;;;14.20;31.50;;;;;;5148004;27;47113;-20
2022/03/05 05:56:00;;;;;;;9.20;6.35;;;14.20;31.50;;;;;;5147608;27;48906;-20
2022/03/05 05:58:26;;;;;;;7.90;6.30;;;14.20;31.60;;;;;;5147833;27;46934;-20
2022/03/05 06:00:53;;;;;;;9.48;7.05;;;14.20;31.50;;;;;;5147489;27;46889;-20
2022/03/05 06:03:21;;;;;;;9.33;6.70;;;14.20;31.50;;;;;;5147958;27;46903;-16
2022/03/05 06:05:48;;;;;;;7.87;6.30;;;14.10;31.50;;;;;;5147835;27;48886;-20
2022/03/05 06:08:14;;;;;;;9.00;6.87;;;14.10;31.50;;;;;;5147383;27;46993;-15
2022/03/05 06:10:41;;;;;;;9.13;6.50;;;14.10;31.50;;;;;;5147061;27;46769;-14
2022/03/05 06:13:08;;;;;;;9.70;7.15;;;14.00;31.50;;;;;;5147727;27;47122;-20
2022/03/05 06:15:35;;;;;;;9.93;6.93;;;14.00;31.60;;;;;;5147470;27;47842;-20
2022/03/05 06:18:02;;;;;;;8.87;6.60;;;14.00;31.70;;;;;;5147157;27;46746;-20
2022/03/05 06:20:30;;;;;;;8.50;6.53;;;14.00;31.70;;;;;;5147468;27;46876;-21
2022/03/05 06:22:56;;;;;;;11.88;7.05;;;14.00;31.70;;;;;;5147680;27;46902;-20
2022/03/05 06:25:23;;;;;;;7.87;6.37;;;13.90;31.70;;;;;;5147432;27;49074;-15
2022/03/05 06:27:50;;;;;;;8.57;6.57;;;13.90;31.80;;;;;;5146975;27;46894;-21
2022/03/05 06:30:17;;;;;;;9.07;6.07;;;13.80;31.80;;;;;;5147260;27;46880;-15
2022/03/05 06:32:43;;;;;;;8.33;6.43;;;13.80;31.80;;;;;;5147341;27;47097;-14
2022/03/05 06:35:10;;;;;;;9.00;6.27;;;13.80;31.90;;;;;;5147036;27;47076;-14
2022/03/05 06:37:39;;;;;;;7.63;6.07;;;13.80;32.00;;;;;;5147371;27;46908;-14
2022/03/05 06:40:10;;;;;;;9.27;6.87;;;13.70;32.00;;;;;;5147092;27;46859;-14
2022/03/05 06:42:36;;;;;;;10.37;7.27;;;13.70;32.00;;;;;;5147409;27;47189;-15
2022/03/05 06:45:03;;;;;;;9.50;6.77;;;13.60;32.10;;;;;;5146984;27;49019;-14
2022/03/05 06:47:31;;;;;;;10.03;7.00;;;13.60;32.10;;;;;;5146993;27;47442;-15
2022/03/05 06:49:57;;;;;;;9.80;6.23;;;13.60;32.20;;;;;;5146925;27;47038;-20
2022/03/05 06:52:24;;;;;;;9.00;6.67;;;13.60;32.30;;;;;;5147101;27;46925;-20
2022/03/05 06:54:52;;;;;;;8.63;6.87;;;13.50;32.30;;;;;;5146985;27;48012;-14
2022/03/05 06:57:19;;;;;;;8.67;7.17;;;13.50;32.30;;;;;;5150638;27;46800;-25
2022/03/05 06:59:46;;;;;;;8.93;6.13;;;13.50;32.40;;;;;;5150252;27;46733;-15
2022/03/05 07:02:13;;;;;;;9.87;7.03;;;13.50;32.40;;;;;;5150862;27;46895;-14
2022/03/05 07:04:40;;;;;;;9.07;6.70;;;13.50;32.40;;;;;;5150156;27;47061;-20
2022/03/05 07:07:07;;;;;;;11.43;7.53;;;13.40;32.50;;;;;;5150122;27;46997;-14
2022/03/05 07:09:34;;;;;;;9.73;7.50;;;13.40;32.50;;;;;;5150120;27;47027;-19
2022/03/05 07:12:02;;;;;;;9.30;7.03;;;13.40;32.60;;;;;;5150643;27;47271;-15
2022/03/05 07:14:29;;;;;;;8.70;6.50;;;13.40;32.60;;;;;;5149935;27;47913;-14
2022/03/05 07:16:55;;;;;;;10.03;7.40;;;13.40;32.60;;;;;;5150498;27;47305;-15
2022/03/05 07:19:22;;;;;;;9.53;6.80;;;13.40;32.60;;;;;;5149742;27;46815;-20
2022/03/05 07:21:49;;;;;;;9.27;6.37;;;13.50;32.50;;;;;;5150376;27;47140;-21
2022/03/05 07:24:16;;;;;;;10.10;7.00;;;13.60;32.40;;;;;;5149820;27;47932;-21
2022/03/05 07:26:42;;;;;;;9.63;7.00;;;13.70;32.20;;;;;;5150055;27;47466;-15
2022/03/05 07:29:10;;;;;;;8.63;6.40;;;13.90;32.10;;;;;;5149965;27;47088;-15
2022/03/05 07:31:37;;;;;;;9.53;6.70;;;14.00;31.90;;;;;;5150381;27;46897;-15
2022/03/05 07:34:04;;;;;;;8.27;6.57;;;14.00;31.80;;;;;;5149906;27;48785;-21
2022/03/05 07:36:31;;;;;;;9.70;6.30;;;14.10;31.70;;;;;;5150078;27;47432;-20
2022/03/05 07:38:57;;;;;;;10.67;6.97;;;14.10;31.60;;;;;;5150062;27;46836;-20
2022/03/05 07:41:24;;;;;;;9.83;6.53;;;14.20;31.60;;;;;;5149991;27;47039;-20
2022/03/05 07:43:51;;;;;;;8.23;7.00;;;14.20;31.60;;;;;;5149785;27;48220;-20
2022/03/05 07:46:19;;;;;;;10.23;5.97;;;14.20;31.50;;;;;;5149599;27;46969;-21
2022/03/05 07:48:46;;;;;;;8.10;5.73;;;14.30;31.50;;;;;;5149563;27;46795;-21
2022/03/05 07:51:12;;;;;;;9.33;6.83;;;14.30;31.50;;;;;;5150068;27;47148;-20
2022/03/05 07:53:39;;;;;;;8.00;6.33;;;14.30;31.60;;;;;;5149642;27;48236;-20
2022/03/05 07:56:06;;;;;;;8.87;6.60;;;14.30;31.60;;;;;;5149711;27;46900;-21
2022/03/05 07:58:33;;;;;;;9.43;6.73;;;14.20;31.60;;;;;;5149813;27;46852;-21
2022/03/05 08:01:00;;;;;;;9.60;6.70;;;14.20;31.60;;;;;;5149414;27;46924;-20
2022/03/05 08:03:28;;;;;;;8.77;6.50;;;14.20;31.60;;;;;;5149301;27;48215;-15
2022/03/05 08:05:54;;;;;;;9.37;6.50;;;14.20;31.60;;;;;;5149207;27;46888;-15
2022/03/05 08:08:21;;;;;;;9.27;6.77;;;14.20;31.70;;;;;;5149524;27;46950;-14
2022/03/05 08:10:48;;;;;;;9.97;6.90;;;14.20;31.70;;;;;;5149516;27;46851;-20
2022/03/05 08:13:15;;;;;;;7.75;6.20;;;14.20;31.80;;;;;;5149380;27;46999;-20
2022/03/05 08:15:41;;;;;;;7.27;5.90;;;14.20;31.80;;;;;;5148934;27;47137;-20
2022/03/05 08:18:08;;;;;;;7.27;6.07;;;14.20;31.90;;;;;;5149444;27;46891;-20
2022/03/05 08:20:36;;;;;;;8.47;6.00;;;14.10;31.90;;;;;;5149589;27;46962;-20
2022/03/05 08:23:03;;;;;;;9.87;6.60;;;14.10;31.90;;;;;;5148908;27;46915;-20
2022/03/05 08:25:30;;;;;;;9.67;6.97;;;14.10;32.60;;;;;;5149314;27;47038;-21
2022/03/05 08:27:56;;;;;;;8.37;6.40;;;14.10;32.10;;;;;;5149412;27;46950;-21
2022/03/05 08:30:23;;;;;;;6.17;5.30;;;14.00;32.00;;;;;;5149294;27;46858;-21
2022/03/05 08:32:50;;;;;;;6.97;6.10;;;14.00;32.10;;;;;;5148568;27;46919;-14
2022/03/05 08:35:18;;;;;;;8.57;6.43;;;14.00;32.10;;;;;;5148541;27;46937;-13
2022/03/05 08:37:46;;;;;;;8.33;5.83;;;14.00;32.20;;;;;;5148789;27;46925;-14
2022/03/05 08:40:14;;;;;;;10.00;6.70;;;14.00;32.10;;;;;;5149057;27;46735;-19
2022/03/05 08:42:40;;;;;;;9.20;6.37;;;14.00;32.30;;;;;;5148769;27;48192;-19
2022/03/05 08:45:08;;;;;;;7.23;5.50;;;13.90;32.30;;;;;;5148613;27;46863;-14
2022/03/05 08:47:35;;;;;;;7.33;5.57;;;13.90;32.40;;;;;;5148618;27;46976;-19
2022/03/05 08:50:02;;;;;;;7.20;6.10;;;13.90;32.40;;;;;;5148407;27;47248;-19
2022/03/05 08:52:35;;;;;;;8.37;6.03;;;13.90;32.50;;;;;;5148301;27;49027;-20
2022/03/05 08:55:04;;;;;;;7.67;5.77;;;13.90;32.50;;;;;;5148253;27;46853;-20
2022/03/05 08:57:31;;;;;;;9.23;6.47;;;13.90;32.60;;;;;;5148615;27;46970;-20
2022/03/05 08:59:58;;;;;;;7.90;5.93;;;13.90;32.60;;;;;;5148363;27;46893;-20
2022/03/05 09:02:25;;;;;;;7.43;5.87;;;13.90;32.60;;;;;;5148969;27;48818;-15
2022/03/05 09:04:53;;;;;;;7.03;5.47;;;13.90;32.50;;;;;;5147936;27;47150;-15
2022/03/05 09:07:20;;;;;;;7.40;5.93;;;13.80;32.40;;;;;;5147770;27;46855;-14
2022/03/05 09:09:46;;;;;;;7.70;5.80;;;13.80;32.50;;;;;;5146959;27;47180;-14
2022/03/05 09:12:14;;;;;;;8.73;5.93;;;13.80;32.70;;;;;;5147461;27;47488;-13
2022/03/05 09:14:41;;;;;;;9.40;6.03;;;13.90;32.80;;;;;;5148166;27;47252;-14
2022/03/05 09:17:08;;;;;;;6.10;4.90;;;13.80;32.80;;;;;;5148202;27;47002;-15
2022/03/05 09:19:34;;;;;;;9.03;6.17;;;13.80;32.80;;;;;;5147850;27;46879;-14
2022/03/05 09:22:01;;;;;;;6.80;5.87;;;13.80;32.80;;;;;;5148439;27;47924;-14
2022/03/05 09:24:28;;;;;;;7.37;6.23;;;13.80;32.90;;;;;;5148178;27;46965;-14
2022/03/05 09:26:54;;;;;;;7.47;5.57;;;13.80;32.90;;;;;;5147949;27;46887;-14
2022/03/05 09:29:23;;;;;;;7.17;5.30;;;13.80;32.90;;;;;;5148058;27;47197;-14
2022/03/05 09:31:50;;;;;;;6.37;5.10;;;13.90;33.00;;;;;;5147808;27;46819;-14
2022/03/05 09:34:17;;;;;;;7.20;5.53;;;13.80;33.00;;;;;;5147938;27;46849;-14
2022/03/05 09:36:43;;;;;;;7.73;5.43;;;13.80;33.00;;;;;;5148096;27;46909;-20
2022/03/05 09:39:11;;;;;;;7.60;5.17;;;13.90;33.10;;;;;;5147869;27;46997;-20
2022/03/05 09:41:39;;;;;;;8.27;5.50;;;13.90;33.10;;;;;;5146866;27;47003;-20
2022/03/05 09:44:06;;;;;;;7.07;5.43;;;13.90;33.10;;;;;;5145901;27;47111;-20
2022/03/05 09:46:34;;;;;;;7.33;5.00;;;13.90;33.10;;;;;;5146352;27;46950;-20
2022/03/05 09:49:01;;;;;;;5.73;4.80;;;13.90;33.10;;;;;;5146472;27;47272;-14
2022/03/05 09:51:28;;;;;;;5.97;4.87;;;13.90;33.00;;;;;;5147571;27;49051;-14
2022/03/05 09:53:55;;;;;;;7.17;5.20;;;13.90;33.10;;;;;;5147386;27;46850;-19
2022/03/05 09:56:21;;;;;;;6.30;4.73;;;13.90;33.10;;;;;;5147499;27;46876;-20
2022/03/05 09:58:48;;;;;;;9.40;5.67;;;14.00;33.10;;;;;;5147857;27;46888;-20
2022/03/05 10:01:15;;;;;;;6.43;5.10;;;14.00;33.10;;;;;;5147449;27;49064;-20
2022/03/05 10:03:47;;;;;;;7.10;5.53;;;14.00;33.20;;;;;;5147308;27;46841;-20
2022/03/05 10:06:17;;;;;;;6.40;5.00;;;14.00;33.10;;;;;;5147766;27;46855;-15
2022/03/05 10:08:44;;;;;;;10.10;4.90;;;14.00;33.10;;;;;;5147494;27;46988;-14
2022/03/05 10:11:12;;;;;;;5.87;4.33;;;14.00;33.10;;;;;;5147271;27;48759;-14
2022/03/05 10:13:39;;;;;;;5.72;4.57;;;14.00;33.10;;;;;;5147147;27;47415;-20
2022/03/05 10:16:07;;;;;;;5.47;4.50;;;14.00;33.10;;;;;;5147301;27;46900;-20
2022/03/05 10:18:34;;;;;;;6.80;4.47;;;14.10;33.20;;;;;;5146480;27;47258;-20
2022/03/05 10:21:04;;;;;;;6.90;4.60;;;14.10;33.10;;;;;;5147415;27;48932;-19
2022/03/05 10:23:33;;;;;;;6.20;5.20;;;14.10;33.70;;;;;;5147579;27;47016;-20
2022/03/05 10:26:01;;;;;;;5.77;4.73;;;14.10;33.10;;;;;;5147015;27;46820;-19
2022/03/05 10:28:29;;;;;;;5.50;4.63;;;14.10;33.10;;;;;;5147282;27;46957;-19
2022/03/05 10:30:58;;;;;;;5.27;4.13;;;14.20;33.70;;;;;;5150372;27;48820;-19
2022/03/05 10:33:29;;;;;;;5.60;4.30;;;14.20;33.10;;;;;;5150915;27;46821;-19
2022/03/05 10:35:56;;;;;;;5.80;4.20;;;14.20;33.10;;;;;;5150918;27;46912;-19
2022/03/05 10:38:25;;;;;;;5.17;4.07;;;14.20;33.00;;;;;;5151320;27;46900;-16
2022/03/05 10:40:55;;;;;;;6.78;4.57;;;14.30;33.10;;;;;;5150455;27;49109;-19
2022/03/05 10:43:22;;;;;;;4.83;3.90;;;14.30;33.60;;;;;;5150812;27;46853;-14
2022/03/05 10:45:50;;;;;;;6.40;4.67;;;14.30;33.00;;;;;;5150597;27;46971;-19
2022/03/05 10:48:25;;;;;;;6.33;4.47;;;14.30;33.00;;;;;;5150992;27;46876;-14
2022/03/05 10:50:56;;;;;;;6.17;4.40;;;14.40;32.90;;;;;;5150496;27;49060;-14
2022/03/05 10:53:39;;;;;;;5.13;3.73;;;14.50;32.90;;;;;;5150519;27;46833;-20
2022/03/05 10:56:24;;;;;;;5.07;3.80;;;14.50;32.80;;;;;;5150626;27;46885;-14
2022/03/05 10:59:08;;;;;;;4.40;4.00;;;14.60;32.80;;;;;;5150646;27;46866;-14
2022/03/05 11:01:36;;;;;;;4.97;3.73;;;14.60;32.70;;;;;;5150553;27;48919;-14
2022/03/05 11:04:03;;;;;;;5.40;4.23;;;14.60;32.60;;;;;;5150228;27;46817;-20
2022/03/05 11:06:31;;;;;;;5.83;3.97;;;14.70;32.60;;;;;;5150469;27;46852;-14
2022/03/05 11:08:59;;;;;;;4.57;3.40;;;14.70;32.50;;;;;;5150643;27;47190;-14
2022/03/05 11:11:25;;;;;;;5.30;3.57;;;14.80;32.40;;;;;;5150612;27;47908;-14
2022/03/05 11:13:52;;;;;;;5.10;4.00;;;14.80;32.30;;;;;;5150434;27;46941;-15
2022/03/05 11:16:19;;;;;;;4.03;3.40;;;14.90;32.30;;;;;;5150350;27;46959;-14
2022/03/05 11:18:45;;;;;;;5.67;3.80;;;14.90;32.30;;;;;;5150191;27;46882;-14
2022/03/05 11:21:12;;;;;;;4.03;3.40;;;15.00;32.30;;;;;;5149853;27;47078;-14
2022/03/05 11:23:40;;;;;;;4.70;3.75;;;15.00;32.20;;;;;;5150095;27;47067;-19
2022/03/05 11:26:08;;;;;;;4.65;3.60;;;15.10;32.20;;;;;;5149974;27;46915;-19
2022/03/05 11:28:36;;;;;;;4.90;3.70;;;15.20;32.10;;;;;;5150361;27;46976;-14
2022/03/05 11:31:06;;;;;;;6.20;3.60;;;15.30;31.90;;;;;;5149846;27;49154;-14
2022/03/05 11:33:38;;;;;;;4.87;3.33;;;15.40;31.80;;;;;;5149940;27;46743;-14
2022/03/05 11:36:05;;;;;;;5.57;3.77;;;15.40;31.80;;;;;;5149612;27;47008;-14
2022/03/05 11:38:33;;;;;;;4.80;3.30;;;15.50;31.50;;;;;;5150285;27;47077;-13
2022/03/05 11:41:00;;;;;;;3.73;3.00;;;15.60;31.50;;;;;;5147814;27;48209;-14
2022/03/05 11:43:28;;;;;;;5.43;4.20;;;15.70;31.40;;;;;;5149443;27;47035;-15
2022/03/05 11:45:58;;;;;;;7.35;3.45;;;15.80;31.30;;;;;;5149770;27;46857;-13
2022/03/05 11:48:30;;;;;;;4.50;2.90;;;15.80;31.30;;;;;;5149828;27;47121;-19
2022/03/05 11:50:57;;;;;;;7.93;3.30;;;15.90;31.20;;;;;;5149460;27;47069;-19
2022/03/05 11:53:24;;;;;;;3.90;2.90;;;16.00;31.20;;;;;;5149658;27;46899;-19
2022/03/05 11:55:51;;;;;;;4.32;3.20;;;16.00;31.00;;;;;;5149657;27;46833;-20
2022/03/05 11:58:34;;;;;;;4.93;2.80;;;16.10;30.80;;;;;;5149611;27;46989;-20
2022/03/05 12:01:36;;;;;;;5.70;3.70;;;16.20;30.70;;;;;;5149195;27;46789;-20
2022/03/05 12:04:19;;;;;;;5.78;3.28;;;16.30;30.80;;;;;;5149500;27;46904;-20
2022/03/05 12:06:47;;;;;;;3.37;3.07;;;16.40;30.70;;;;;;5149523;27;46847;-20
2022/03/05 12:09:50;;;;;;;5.13;3.42;;;16.50;30.60;;;;;;5149178;27;47281;-20
2022/03/05 12:12:17;;;;;;;4.20;2.88;;;16.50;30.60;;;;;;5149336;27;47878;-19
2022/03/05 12:15:11;;;;;;;5.70;3.10;;;16.60;30.60;;;;;;5149222;27;46915;-19
2022/03/05 12:17:40;;;;;;;3.90;3.20;;;16.70;30.50;;;;;;5149311;27;46883;-19
2022/03/05 12:20:08;;;;;;;5.15;3.30;;;16.80;30.60;;;;;;5149068;27;46933;-19
2022/03/05 12:22:35;;;;;;;5.18;3.33;;;16.80;30.50;;;;;;5149329;27;49057;-20
2022/03/05 12:25:01;;;;;;;4.40;3.40;;;16.90;30.50;;;;;;5148777;27;47071;-19
2022/03/05 12:27:29;;;;;;;4.15;2.78;;;16.90;30.30;;;;;;5149229;27;46868;-19
2022/03/05 12:29:56;;;;;;;3.15;2.58;;;17.00;30.30;;;;;;5148451;27;46931;-19
2022/03/05 12:32:30;;;;;;;5.40;2.72;;;17.10;30.30;;;;;;5149064;27;47856;-18
2022/03/05 12:35:03;;;;;;;4.22;3.10;;;17.10;30.10;;;;;;5148546;27;46908;-19
2022/03/05 12:37:31;;;;;;;2.80;2.55;;;17.20;30.00;;;;;;5149195;27;46798;-19
2022/03/05 12:39:58;;;;;;;4.82;2.95;;;17.20;30.20;;;;;;5148959;27;46860;-19
2022/03/05 12:42:26;;;;;;;5.53;2.95;;;17.20;30.20;;;;;;5148690;27;46997;-14
2022/03/05 12:44:55;;;;;;;3.85;2.78;;;17.30;30.10;;;;;;5148764;27;46966;-14
2022/03/05 12:47:28;;;;;;;4.03;3.10;;;17.30;30.20;;;;;;5149124;27;46794;-13
2022/03/05 12:49:55;;;;;;;3.83;3.00;;;17.40;30.20;;;;;;5148455;27;46808;-13
2022/03/05 12:52:21;;;;;;;3.28;2.95;;;17.40;30.20;;;;;;5147770;27;47780;-13